Time,TemperatureF,DewpointF,PressureIn,WindDirection,WindDirectionDegrees,WindSpeedMPH,WindSpeedGustMPH,Humidity,HourlyPrecipIn,Conditions,Clouds,dailyrainin,SoftwareType,DateUTC
2013-03-10 00:00:00,37.8,30.2,0.00,North,0,0.0,0.0,74,0.00,,,-99.99,pyweather 0.1,2013-03-10 08:00:00,
2013-03-10 00:08:00,37.6,30.1,0.00,North,0,0.0,0.0,74,0.00,,,-99.99,pyweather 0.1,2013-03-10 08:08:00,
2013-03-10 00:16:00,37.4,29.9,0.00,North,0,0.0,0.0,74,0.00,,,-99.99,pyweather 0.1,2013-03-10 08:16:00,
2013-03-10 00:24:00,37.4,29.9,0.00,North,0,0.0,0.0,74,0.00,,,-99.99,pyweather 0.1,2013-03-10 08:24:00,
2013-03-10 00:32:00,37.2,30.0,0.00,North,0,0.0,0.0,75,0.00,,,-99.99,pyweather 0.1,2013-03-10 08:32:00,
2013-03-10 00:40:00,37.0,29.9,0.00,North,0,0.0,0.0,75,0.00,,,-99.99,pyweather 0.1,2013-03-10 08:40:00,
2013-03-10 00:48:00,36.9,29.7,0.00,North,0,0.0,0.0,75,0.00,,,-99.99,pyweather 0.1,2013-03-10 08:48:00,
2013-03-10 00:56:00,36.9,30.0,0.00,North,0,0.0,0.0,76,0.00,,,-99.99,pyweather 0.1,2013-03-10 08:56:00,
2013-03-10 01:04:00,36.9,30.0,0.00,North,0,0.0,0.0,76,0.00,,,-99.99,pyweather 0.1,2013-03-10 09:04:00,
2013-03-10 01:12:00,36.7,29.8,0.00,North,0,0.0,0.0,76,0.00,,,-99.99,pyweather 0.1,2013-03-10 09:12:00,
2013-03-10 01:20:00,36.5,29.7,0.00,North,0,0.0,0.0,76,0.00,,,-99.99,pyweather 0.1,2013-03-10 09:20:00,
2013-03-10 01:28:00,36.3,29.5,0.00,North,0,0.0,0.0,76,0.00,,,-99.99,pyweather 0.1,2013-03-10 09:28:00,
2013-03-10 01:36:00,36.3,29.5,0.00,North,0,0.0,0.0,76,0.00,,,-99.99,pyweather 0.1,2013-03-10 09:36:00,
2013-03-10 01:44:00,36.3,29.8,0.00,North,0,0.0,0.0,77,0.00,,,-99.99,pyweather 0.1,2013-03-10 09:44:00,
2013-03-10 01:52:00,36.3,29.8,0.00,North,0,0.0,0.0,77,0.00,,,-99.99,pyweather 0.1,2013-03-10 09:52:00,
2013-03-10 03:00:00,36.3,29.8,0.00,North,0,0.0,0.0,77,0.00,,,-99.99,pyweather 0.1,2013-03-10 10:00:00,
2013-03-10 03:08:00,36.3,29.8,0.00,North,0,0.0,0.0,77,0.00,,,-99.99,pyweather 0.1,2013-03-10 10:08:00,
2013-03-10 03:16:00,36.3,29.8,0.00,North,0,0.0,0.0,77,0.00,,,-99.99,pyweather 0.1,2013-03-10 10:16:00,
2013-03-10 03:24:00,36.3,29.8,0.00,North,0,0.0,0.0,77,0.00,,,-99.99,pyweather 0.1,2013-03-10 10:24:00,
2013-03-10 03:32:00,36.3,30.1,0.00,North,0,0.0,0.0,78,0.00,,,-99.99,pyweather 0.1,2013-03-10 10:32:00,
2013-03-10 03:40:00,36.3,30.1,0.00,North,0,0.0,0.0,78,0.00,,,-99.99,pyweather 0.1,2013-03-10 10:40:00,
2013-03-10 03:48:00,36.3,30.1,0.00,North,0,0.0,0.0,78,0.00,,,-99.99,pyweather 0.1,2013-03-10 10:48:00,
2013-03-10 03:56:00,36.3,30.1,0.00,North,0,0.0,0.0,78,0.00,,,-99.99,pyweather 0.1,2013-03-10 10:56:00,
2013-03-10 04:04:00,36.3,30.1,0.00,North,0,0.0,0.0,78,0.00,,,-99.99,pyweather 0.1,2013-03-10 11:04:00,
2013-03-10 04:12:00,36.5,30.3,0.00,North,0,0.0,0.0,78,0.00,,,-99.99,pyweather 0.1,2013-03-10 11:12:00,
2013-03-10 04:20:00,36.7,30.8,0.00,North,0,0.0,0.0,79,0.00,,,-99.99,pyweather 0.1,2013-03-10 11:20:00,
2013-03-10 04:28:00,36.7,30.8,0.00,North,0,0.0,0.0,79,0.00,,,-99.99,pyweather 0.1,2013-03-10 11:28:00,
2013-03-10 04:36:00,36.9,31.0,0.00,North,0,0.0,0.0,79,0.00,,,-99.99,pyweather 0.1,2013-03-10 11:36:00,
2013-03-10 04:44:00,36.9,31.0,0.00,North,0,0.0,0.0,79,0.00,,,-99.99,pyweather 0.1,2013-03-10 11:44:00,
2013-03-10 04:52:00,37.0,31.5,0.00,North,0,0.0,0.0,80,0.00,,,-99.99,pyweather 0.1,2013-03-10 11:52:00,
2013-03-10 05:00:00,37.0,31.5,0.00,North,0,0.0,0.0,80,0.00,,,-99.99,pyweather 0.1,2013-03-10 12:00:00,
2013-03-10 05:08:00,37.2,31.6,0.00,North,0,0.0,0.0,80,0.00,,,-99.99,pyweather 0.1,2013-03-10 12:08:00,
2013-03-10 05:16:00,37.4,31.8,0.00,North,0,0.0,0.0,80,0.00,,,-99.99,pyweather 0.1,2013-03-10 12:16:00,
2013-03-10 05:24:00,37.4,32.1,0.00,North,0,0.0,0.0,81,0.00,,,-99.99,pyweather 0.1,2013-03-10 12:24:00,
2013-03-10 05:32:00,37.6,32.3,0.00,North,0,0.0,0.0,81,0.00,,,-99.99,pyweather 0.1,2013-03-10 12:32:00,
2013-03-10 05:40:00,37.8,32.5,0.00,North,0,0.0,0.0,81,0.00,,,-99.99,pyweather 0.1,2013-03-10 12:40:00,
2013-03-10 05:48:00,37.9,32.6,0.00,North,0,0.0,0.0,81,0.00,,,-99.99,pyweather 0.1,2013-03-10 12:48:00,
2013-03-10 05:56:00,37.9,32.6,0.00,North,0,0.0,0.0,81,0.00,,,-99.99,pyweather 0.1,2013-03-10 12:56:00,
2013-03-10 06:04:00,38.1,33.1,0.00,North,0,0.0,0.0,82,0.00,,,-99.99,pyweather 0.1,2013-03-10 13:04:00,
2013-03-10 06:12:00,38.1,33.1,0.00,North,0,0.0,0.0,82,0.00,,,-99.99,pyweather 0.1,2013-03-10 13:12:00,
2013-03-10 06:20:00,38.1,33.1,0.00,North,0,0.0,0.0,82,0.00,,,-99.99,pyweather 0.1,2013-03-10 13:20:00,
2013-03-10 06:28:00,38.1,33.1,0.00,North,0,0.0,0.0,82,0.00,,,-99.99,pyweather 0.1,2013-03-10 13:28:00,
2013-03-10 06:36:00,38.3,33.3,0.00,North,0,0.0,0.0,82,0.00,,,-99.99,pyweather 0.1,2013-03-10 13:36:00,
2013-03-10 06:44:00,38.5,33.5,0.00,North,0,0.0,0.0,82,0.00,,,-99.99,pyweather 0.1,2013-03-10 13:44:00,
2013-03-10 06:52:00,38.5,33.8,0.00,North,0,0.0,0.0,83,0.00,,,-99.99,pyweather 0.1,2013-03-10 13:52:00,
2013-03-10 07:00:00,38.7,34.0,0.00,North,0,0.0,0.0,83,0.00,,,-99.99,pyweather 0.1,2013-03-10 14:00:00,
2013-03-10 07:08:00,38.7,34.0,0.00,North,0,0.0,0.0,83,0.00,,,-99.99,pyweather 0.1,2013-03-10 14:08:00,
2013-03-10 07:16:00,38.7,34.0,0.00,North,0,0.0,0.0,83,0.00,,,-99.99,pyweather 0.1,2013-03-10 14:16:00,
2013-03-10 07:24:00,38.7,34.0,0.00,North,0,0.0,0.0,83,0.00,,,-99.99,pyweather 0.1,2013-03-10 14:24:00,
2013-03-10 07:32:00,38.8,34.1,0.00,North,0,0.0,0.0,83,0.00,,,-99.99,pyweather 0.1,2013-03-10 14:32:00,
2013-03-10 07:40:00,38.8,34.1,0.00,North,0,0.0,0.0,83,0.00,,,-99.99,pyweather 0.1,2013-03-10 14:40:00,
2013-03-10 07:49:00,38.8,34.4,0.00,North,0,0.0,0.0,84,0.00,,,-99.99,pyweather 0.1,2013-03-10 14:49:00,
2013-03-10 07:57:00,39.0,34.6,0.00,North,0,0.0,0.0,84,0.00,,,-99.99,pyweather 0.1,2013-03-10 14:57:00,
2013-03-10 08:05:00,39.0,34.6,0.00,North,0,0.0,0.0,84,0.00,,,-99.99,pyweather 0.1,2013-03-10 15:05:00,
2013-03-10 08:13:00,39.2,34.8,0.00,North,0,0.0,0.0,84,0.00,,,-99.99,pyweather 0.1,2013-03-10 15:13:00,
2013-03-10 08:21:00,39.4,35.0,0.00,North,0,0.0,0.0,84,0.00,,,-99.99,pyweather 0.1,2013-03-10 15:21:00,
2013-03-10 08:29:00,39.7,35.6,0.00,North,0,0.0,0.0,85,0.00,,,-99.99,pyweather 0.1,2013-03-10 15:29:00,
2013-03-10 08:37:00,39.9,35.8,0.00,North,0,0.0,0.0,85,0.00,,,-99.99,pyweather 0.1,2013-03-10 15:37:00,
2013-03-10 08:45:00,40.1,36.0,0.00,North,0,0.0,0.0,85,0.00,,,-99.99,pyweather 0.1,2013-03-10 15:45:00,
2013-03-10 08:53:00,40.3,36.1,0.00,North,0,0.0,0.0,85,0.00,,,-99.99,pyweather 0.1,2013-03-10 15:53:00,
2013-03-10 09:01:00,40.5,36.3,0.00,North,0,0.0,0.0,85,0.00,,,-99.99,pyweather 0.1,2013-03-10 16:01:00,
2013-03-10 09:09:00,40.6,36.5,0.00,North,0,0.0,0.0,85,0.00,,,-99.99,pyweather 0.1,2013-03-10 16:09:00,
2013-03-10 09:17:00,41.0,36.8,0.00,North,0,0.0,0.0,85,0.00,,,-99.99,pyweather 0.1,2013-03-10 16:17:00,
2013-03-10 09:25:00,41.0,36.5,0.00,North,0,0.0,0.0,84,0.00,,,-99.99,pyweather 0.1,2013-03-10 16:25:00,
2013-03-10 09:33:00,41.0,36.2,0.00,North,0,0.0,0.0,83,0.00,,,-99.99,pyweather 0.1,2013-03-10 16:33:00,
2013-03-10 09:41:00,41.4,36.6,0.00,North,0,0.0,0.0,83,0.00,,,-99.99,pyweather 0.1,2013-03-10 16:41:00,
2013-03-10 09:49:00,41.9,37.1,0.00,North,0,0.0,0.0,83,0.00,,,-99.99,pyweather 0.1,2013-03-10 16:49:00,
2013-03-10 09:57:00,42.3,37.2,0.00,North,0,0.0,0.0,82,0.00,,,-99.99,pyweather 0.1,2013-03-10 16:57:00,
2013-03-10 10:05:00,42.8,37.1,0.00,North,0,0.0,0.0,80,0.00,,,-99.99,pyweather 0.1,2013-03-10 17:05:00,
2013-03-10 10:13:00,43.0,35.6,0.00,North,0,0.0,0.0,75,0.00,,,-99.99,pyweather 0.1,2013-03-10 17:13:00,
2013-03-10 10:21:00,43.5,35.8,0.00,North,0,0.0,0.0,74,0.00,,,-99.99,pyweather 0.1,2013-03-10 17:21:00,
2013-03-10 10:29:00,43.7,34.2,0.00,North,0,0.0,0.0,69,0.00,,,-99.99,pyweather 0.1,2013-03-10 17:29:00,
2013-03-10 10:37:00,44.1,33.1,0.00,North,0,0.0,0.0,65,0.00,,,-99.99,pyweather 0.1,2013-03-10 17:37:00,
2013-03-10 10:45:00,44.2,33.6,0.00,North,0,0.0,0.0,66,0.00,,,-99.99,pyweather 0.1,2013-03-10 17:45:00,
2013-03-10 10:53:00,44.4,33.0,0.00,North,0,0.0,0.0,64,0.00,,,-99.99,pyweather 0.1,2013-03-10 17:53:00,
2013-03-10 11:01:00,44.8,33.4,0.00,North,0,0.0,0.0,64,0.00,,,-99.99,pyweather 0.1,2013-03-10 18:01:00,
2013-03-10 11:09:00,45.0,33.9,0.00,North,0,0.0,0.0,65,0.00,,,-99.99,pyweather 0.1,2013-03-10 18:09:00,
2013-03-10 11:17:00,45.1,34.1,0.00,North,0,0.0,0.0,65,0.00,,,-99.99,pyweather 0.1,2013-03-10 18:17:00,
2013-03-10 11:25:00,45.1,33.3,0.00,North,0,0.0,0.0,63,0.00,,,-99.99,pyweather 0.1,2013-03-10 18:25:00,
2013-03-10 11:33:00,45.3,33.1,0.00,North,0,0.0,0.0,62,0.00,,,-99.99,pyweather 0.1,2013-03-10 18:33:00,
2013-03-10 11:41:00,45.7,33.8,0.00,North,0,0.0,0.0,63,0.00,,,-99.99,pyweather 0.1,2013-03-10 18:41:00,
2013-03-10 11:49:00,46.0,34.6,0.00,North,0,0.0,0.0,64,0.00,,,-99.99,pyweather 0.1,2013-03-10 18:49:00,
2013-03-10 11:57:00,46.4,34.9,0.00,North,0,0.0,0.0,64,0.00,,,-99.99,pyweather 0.1,2013-03-10 18:57:00,
2013-03-10 12:05:00,46.4,34.5,0.00,North,0,0.0,0.0,63,0.00,,,-99.99,pyweather 0.1,2013-03-10 19:05:00,
2013-03-10 12:13:00,46.6,34.7,0.00,North,0,0.0,0.0,63,0.00,,,-99.99,pyweather 0.1,2013-03-10 19:13:00,
2013-03-10 12:21:00,46.9,35.0,0.00,North,0,0.0,0.0,63,0.00,,,-99.99,pyweather 0.1,2013-03-10 19:21:00,
2013-03-10 12:29:00,47.1,35.2,0.00,North,0,0.0,0.0,63,0.00,,,-99.99,pyweather 0.1,2013-03-10 19:29:00,
2013-03-10 12:37:00,47.3,35.0,0.00,North,0,0.0,0.0,62,0.00,,,-99.99,pyweather 0.1,2013-03-10 19:37:00,
2013-03-10 12:45:00,47.7,35.7,0.00,North,0,0.0,0.0,63,0.00,,,-99.99,pyweather 0.1,2013-03-10 19:45:00,
2013-03-10 12:53:00,48.4,36.4,0.00,North,0,0.0,0.0,63,0.00,,,-99.99,pyweather 0.1,2013-03-10 19:53:00,
2013-03-10 13:01:00,48.6,35.3,0.00,North,0,0.0,0.0,60,0.00,,,-99.99,pyweather 0.1,2013-03-10 20:01:00,
2013-03-10 13:17:00,49.1,34.1,0.00,North,0,0.0,0.0,56,0.00,,,-99.99,pyweather 0.1,2013-03-10 20:17:00,
2013-03-10 13:25:00,49.5,33.5,0.00,North,0,0.0,0.0,54,0.00,,,-99.99,pyweather 0.1,2013-03-10 20:25:00,
2013-03-10 13:33:00,49.8,33.9,0.00,North,0,0.0,0.0,54,0.00,,,-99.99,pyweather 0.1,2013-03-10 20:33:00,
2013-03-10 13:41:00,50.0,33.1,0.00,North,0,0.0,0.0,52,0.00,,,-99.99,pyweather 0.1,2013-03-10 20:41:00,
2013-03-10 13:49:00,49.8,31.4,0.00,North,0,0.0,0.0,49,0.00,,,-99.99,pyweather 0.1,2013-03-10 20:49:00,
2013-03-10 14:05:00,48.9,30.6,0.00,North,0,0.0,0.0,49,0.00,,,-99.99,pyweather 0.1,2013-03-10 21:05:00,
2013-03-10 14:13:00,48.9,30.6,0.00,North,0,0.0,0.0,49,0.00,,,-99.99,pyweather 0.1,2013-03-10 21:13:00,
2013-03-10 14:21:00,48.7,30.5,0.00,North,0,0.0,0.0,49,0.00,,,-99.99,pyweather 0.1,2013-03-10 21:21:00,
2013-03-10 14:29:00,48.7,30.5,0.00,North,0,0.0,0.0,49,0.00,,,-99.99,pyweather 0.1,2013-03-10 21:29:00,
2013-03-10 14:37:00,48.7,30.5,0.00,North,0,0.0,0.0,49,0.00,,,-99.99,pyweather 0.1,2013-03-10 21:37:00,
2013-03-10 14:45:00,48.6,30.3,0.00,North,0,0.0,0.0,49,0.00,,,-99.99,pyweather 0.1,2013-03-10 21:45:00,
2013-03-10 14:53:00,48.6,30.8,0.00,North,0,0.0,0.0,50,0.00,,,-99.99,pyweather 0.1,2013-03-10 21:53:00,
2013-03-10 15:01:00,48.6,30.8,0.00,North,0,0.0,0.0,50,0.00,,,-99.99,pyweather 0.1,2013-03-10 22:01:00,
2013-03-10 15:09:00,48.7,31.4,0.00,North,0,0.0,0.0,51,0.00,,,-99.99,pyweather 0.1,2013-03-10 22:09:00,
2013-03-10 15:17:00,48.7,31.9,0.00,North,0,0.0,0.0,52,0.00,,,-99.99,pyweather 0.1,2013-03-10 22:17:00,
2013-03-10 15:25:00,48.7,32.4,0.00,North,0,0.0,0.0,53,0.00,,,-99.99,pyweather 0.1,2013-03-10 22:25:00,
2013-03-10 15:33:00,48.7,33.3,0.00,North,0,0.0,0.0,55,0.00,,,-99.99,pyweather 0.1,2013-03-10 22:33:00,
2013-03-10 15:42:00,48.7,32.8,0.00,North,0,0.0,0.0,54,0.00,,,-99.99,pyweather 0.1,2013-03-10 22:42:00,
2013-03-10 15:50:00,48.7,33.3,0.00,North,0,0.0,0.0,55,0.00,,,-99.99,pyweather 0.1,2013-03-10 22:50:00,
2013-03-10 15:58:00,48.9,33.5,0.00,North,0,0.0,0.0,55,0.00,,,-99.99,pyweather 0.1,2013-03-10 22:58:00,
2013-03-10 16:06:00,48.9,33.5,0.00,North,0,0.0,0.0,55,0.00,,,-99.99,pyweather 0.1,2013-03-10 23:06:00,
2013-03-10 16:14:00,48.7,33.8,0.00,North,0,0.0,0.0,56,0.00,,,-99.99,pyweather 0.1,2013-03-10 23:14:00,
2013-03-10 16:22:00,48.6,34.0,0.00,North,0,0.0,0.0,57,0.00,,,-99.99,pyweather 0.1,2013-03-10 23:22:00,
2013-03-10 16:30:00,48.4,33.9,0.00,North,0,0.0,0.0,57,0.00,,,-99.99,pyweather 0.1,2013-03-10 23:30:00,
2013-03-10 16:38:00,48.6,34.5,0.00,North,0,0.0,0.0,58,0.00,,,-99.99,pyweather 0.1,2013-03-10 23:38:00,
2013-03-10 16:46:00,48.6,34.0,0.00,North,0,0.0,0.0,57,0.00,,,-99.99,pyweather 0.1,2013-03-10 23:46:00,
2013-03-10 16:54:00,48.6,34.9,0.00,North,0,0.0,0.0,59,0.00,,,-99.99,pyweather 0.1,2013-03-10 23:54:00,
2013-03-10 17:02:00,48.4,35.6,0.00,North,0,0.0,0.0,61,0.00,,,-99.99,pyweather 0.1,2013-03-11 00:02:00,
2013-03-10 17:10:00,48.2,35.8,0.00,North,0,0.0,0.0,62,0.00,,,-99.99,pyweather 0.1,2013-03-11 00:10:00,
2013-03-10 17:18:00,48.0,36.0,0.00,North,0,0.0,0.0,63,0.00,,,-99.99,pyweather 0.1,2013-03-11 00:18:00,
2013-03-10 17:34:00,47.7,36.1,0.00,North,0,0.0,0.0,64,0.00,,,-99.99,pyweather 0.1,2013-03-11 00:34:00,
2013-03-10 17:42:00,47.5,36.3,0.00,North,0,0.0,0.0,65,0.00,,,-99.99,pyweather 0.1,2013-03-11 00:42:00,
2013-03-10 17:50:00,47.3,36.5,0.00,North,0,0.0,0.0,66,0.00,,,-99.99,pyweather 0.1,2013-03-11 00:50:00,
2013-03-10 17:58:00,47.3,36.5,0.00,North,0,0.0,0.0,66,0.00,,,-99.99,pyweather 0.1,2013-03-11 00:58:00,
2013-03-10 18:14:00,47.1,36.4,0.00,North,0,0.0,0.0,66,0.00,,,-99.99,pyweather 0.1,2013-03-11 01:14:00,
2013-03-10 18:22:00,47.1,36.4,0.00,North,0,0.0,0.0,66,0.00,,,-99.99,pyweather 0.1,2013-03-11 01:22:00,
2013-03-10 18:30:00,47.1,36.7,0.00,North,0,0.0,0.0,67,0.00,,,-99.99,pyweather 0.1,2013-03-11 01:30:00,
2013-03-10 18:38:00,47.1,36.7,0.00,North,0,0.0,0.0,67,0.00,,,-99.99,pyweather 0.1,2013-03-11 01:38:00,
2013-03-10 18:46:00,46.9,36.9,0.00,North,0,0.0,0.0,68,0.00,,,-99.99,pyweather 0.1,2013-03-11 01:46:00,
2013-03-10 18:54:00,46.6,37.0,0.00,North,0,0.0,0.0,69,0.00,,,-99.99,pyweather 0.1,2013-03-11 01:54:00,
2013-03-10 19:02:00,46.4,37.2,0.00,North,0,0.0,0.0,70,0.00,,,-99.99,pyweather 0.1,2013-03-11 02:02:00,
2013-03-10 19:10:00,46.2,37.7,0.00,North,0,0.0,0.0,72,0.00,,,-99.99,pyweather 0.1,2013-03-11 02:10:00,
2013-03-10 19:18:00,46.0,37.9,0.00,North,0,0.0,0.0,73,0.00,,,-99.99,pyweather 0.1,2013-03-11 02:18:00,
2013-03-10 19:26:00,46.0,38.2,0.00,North,0,0.0,0.0,74,0.00,,,-99.99,pyweather 0.1,2013-03-11 02:26:00,
2013-03-10 19:34:00,45.9,38.4,0.00,North,0,0.0,0.0,75,0.00,,,-99.99,pyweather 0.1,2013-03-11 02:34:00,
2013-03-10 19:42:00,45.9,38.4,0.00,North,0,0.0,0.0,75,0.00,,,-99.99,pyweather 0.1,2013-03-11 02:42:00,
2013-03-10 19:50:00,45.9,38.7,0.00,North,0,0.0,0.0,76,0.00,,,-99.99,pyweather 0.1,2013-03-11 02:50:00,
2013-03-10 19:58:00,45.9,38.7,0.00,North,0,0.0,0.0,76,0.00,,,-99.99,pyweather 0.1,2013-03-11 02:58:00,
2013-03-10 20:06:00,45.9,39.1,0.00,North,0,0.0,0.0,77,0.00,,,-99.99,pyweather 0.1,2013-03-11 03:06:00,
2013-03-10 20:14:00,45.7,38.9,0.00,North,0,0.0,0.0,77,0.00,,,-99.99,pyweather 0.1,2013-03-11 03:14:00,
2013-03-10 20:22:00,45.7,38.9,0.00,North,0,0.0,0.0,77,0.00,,,-99.99,pyweather 0.1,2013-03-11 03:22:00,
2013-03-10 20:30:00,45.5,39.0,0.00,North,0,0.0,0.0,78,0.00,,,-99.99,pyweather 0.1,2013-03-11 03:30:00,
2013-03-10 20:38:00,45.5,39.0,0.00,North,0,0.0,0.0,78,0.00,,,-99.99,pyweather 0.1,2013-03-11 03:38:00,
2013-03-10 20:46:00,45.5,39.4,0.00,North,0,0.0,0.0,79,0.00,,,-99.99,pyweather 0.1,2013-03-11 03:46:00,
2013-03-10 20:54:00,45.5,39.4,0.00,North,0,0.0,0.0,79,0.00,,,-99.99,pyweather 0.1,2013-03-11 03:54:00,
2013-03-10 21:02:00,45.5,39.7,0.00,North,0,0.0,0.0,80,0.00,,,-99.99,pyweather 0.1,2013-03-11 04:02:00,
2013-03-10 21:10:00,45.5,39.7,0.00,North,0,0.0,0.0,80,0.00,,,-99.99,pyweather 0.1,2013-03-11 04:10:00,
2013-03-10 21:18:00,45.5,40.0,0.00,North,0,0.0,0.0,81,0.00,,,-99.99,pyweather 0.1,2013-03-11 04:18:00,
2013-03-10 21:26:00,45.5,40.0,0.00,North,0,0.0,0.0,81,0.00,,,-99.99,pyweather 0.1,2013-03-11 04:26:00,
2013-03-10 21:34:00,45.5,40.0,0.00,North,0,0.0,0.0,81,0.00,,,-99.99,pyweather 0.1,2013-03-11 04:34:00,
2013-03-10 21:42:00,45.3,40.2,0.00,North,0,0.0,0.0,82,0.00,,,-99.99,pyweather 0.1,2013-03-11 04:42:00,
2013-03-10 21:50:00,45.3,40.2,0.00,North,0,0.0,0.0,82,0.00,,,-99.99,pyweather 0.1,2013-03-11 04:50:00,
2013-03-10 21:58:00,45.1,40.0,0.00,North,0,0.0,0.0,82,0.00,,,-99.99,pyweather 0.1,2013-03-11 04:58:00,
2013-03-10 22:06:00,45.1,40.0,0.00,North,0,0.0,0.0,82,0.00,,,-99.99,pyweather 0.1,2013-03-11 05:06:00,
2013-03-10 22:14:00,45.1,40.3,0.00,North,0,0.0,0.0,83,0.00,,,-99.99,pyweather 0.1,2013-03-11 05:14:00,
2013-03-10 22:22:00,45.0,40.1,0.00,North,0,0.0,0.0,83,0.00,,,-99.99,pyweather 0.1,2013-03-11 05:22:00,
2013-03-10 22:30:00,45.1,40.3,0.00,North,0,0.0,0.0,83,0.00,,,-99.99,pyweather 0.1,2013-03-11 05:30:00,
2013-03-10 22:38:00,45.1,40.3,0.00,North,0,0.0,0.0,83,0.00,,,-99.99,pyweather 0.1,2013-03-11 05:38:00,
2013-03-10 22:47:00,45.1,40.3,0.00,North,0,0.0,0.0,83,0.00,,,-99.99,pyweather 0.1,2013-03-11 05:47:00,
2013-03-10 22:54:00,45.1,40.6,0.00,North,0,0.0,0.0,84,0.00,,,-99.99,pyweather 0.1,2013-03-11 05:54:00,
2013-03-10 23:02:00,45.0,40.1,0.00,North,0,0.0,0.0,83,0.00,,,-99.99,pyweather 0.1,2013-03-11 06:02:00,
2013-03-10 23:10:00,44.8,40.2,0.00,North,0,0.0,0.0,84,0.00,,,-99.99,pyweather 0.1,2013-03-11 06:10:00,
2013-03-10 23:19:00,44.8,40.2,0.00,North,0,0.0,0.0,84,0.00,,,-99.99,pyweather 0.1,2013-03-11 06:19:00,
2013-03-10 23:27:00,45.0,40.4,0.00,North,0,0.0,0.0,84,0.00,,,-99.99,pyweather 0.1,2013-03-11 06:27:00,
2013-03-10 23:35:00,45.0,40.4,0.00,North,0,0.0,0.0,84,0.00,,,-99.99,pyweather 0.1,2013-03-11 06:35:00,
2013-03-10 23:43:00,45.0,40.7,0.00,North,0,0.0,0.0,85,0.00,,,-99.99,pyweather 0.1,2013-03-11 06:43:00,
2013-03-10 23:59:00,44.8,40.5,0.00,North,0,0.0,0.0,85,0.00,,,-99.99,pyweather 0.1,2013-03-11 06:59:00,